RRR9732 EGVN-EGPK
Flight info
| Callsign | RRR9732 |
|---|---|
| Flight time | 1h 9m |
| Altitude | 39000 |
| Route | KISWO N864 AVTIC N38 NOKIN P17 POL N601 RIBEL DCT ASLIB |
| Aircraft | A332/H-SDE3GHIJ2J3J5M1RVWXY/LB2D1 |
Departure
| Time | 2026-05-05 13:22 |
|---|---|
| Airport | RAF Brize Norton (EGVN) |
Arrival
| Time | 2026-05-05 14:32 |
|---|---|
| Airport | Glasgow Prestwick Airport (EGPK) |
| Time | Latitude | Longitude | Altitude | Speed | Heading |
|---|---|---|---|---|---|
| 2026-05-05 13:03 | 51.75786 | -1.57440 | 271 ft | 0 kts | 107° |
| 2026-05-05 13:14 | 51.75783 | -1.57389 | 271 ft | 14 kts | 86° |
| 2026-05-05 13:14 | 51.75887 | -1.57287 | 270 ft | 12 kts | 9° |
| 2026-05-05 13:14 | 51.75932 | -1.57397 | 270 ft | 14 kts | 280° |
| 2026-05-05 13:15 | 51.75868 | -1.57530 | 271 ft | 21 kts | 200° |
| 2026-05-05 13:15 | 51.75704 | -1.57614 | 273 ft | 35 kts | 198° |
| 2026-05-05 13:15 | 51.75382 | -1.57842 | 276 ft | 57 kts | 208° |
| 2026-05-05 13:15 | 51.75230 | -1.57974 | 277 ft | 0 kts | 202° |
| 2026-05-05 13:16 | 51.75162 | -1.58033 | 278 ft | 29 kts | 208° |
| 2026-05-05 13:16 | 51.74974 | -1.58199 | 280 ft | 31 kts | 208° |
| 2026-05-05 13:16 | 51.74784 | -1.58366 | 282 ft | 31 kts | 208° |
| 2026-05-05 13:17 | 51.74638 | -1.58585 | 284 ft | 29 kts | 252° |
| 2026-05-05 13:17 | 51.74582 | -1.58891 | 287 ft | 28 kts | 253° |
| 2026-05-05 13:17 | 51.74527 | -1.59189 | 291 ft | 27 kts | 253° |
| 2026-05-05 13:17 | 51.74474 | -1.59479 | 294 ft | 27 kts | 253° |
| 2026-05-05 13:18 | 51.74426 | -1.59761 | 295 ft | 25 kts | 263° |
| 2026-05-05 13:18 | 51.74480 | -1.59984 | 299 ft | 3 kts | 300° |
| 2026-05-05 13:21 | 51.74486 | -1.60120 | 300 ft | 25 kts | 257° |
| 2026-05-05 13:21 | 51.74562 | -1.60342 | 299 ft | 23 kts | 326° |
| 2026-05-05 13:21 | 51.74632 | -1.60285 | 301 ft | 0 kts | 70° |
| 2026-05-05 13:22 | 51.74696 | -1.59945 | 297 ft | 81 kts | 73° |
| 2026-05-05 13:22 | 51.74949 | -1.58577 | 284 ft | 167 kts | 73° |
| 2026-05-05 13:22 | 51.75336 | -1.56493 | 448 ft | 210 kts | 72° |
| 2026-05-05 13:22 | 51.75774 | -1.54083 | 1107 ft | 236 kts | 71° |
| 2026-05-05 13:23 | 51.76281 | -1.51520 | 1783 ft | 247 kts | 61° |
| 2026-05-05 13:23 | 51.77478 | -1.49543 | 2640 ft | 248 kts | 24° |
| 2026-05-05 13:23 | 51.79147 | -1.49181 | 3620 ft | 246 kts | 348° |
| 2026-05-05 13:23 | 51.80645 | -1.50534 | 4495 ft | 257 kts | 313° |
| 2026-05-05 13:24 | 51.81400 | -1.53148 | 5315 ft | 268 kts | 278° |
| 2026-05-05 13:24 | 51.81210 | -1.56169 | 5804 ft | 273 kts | 255° |
| 2026-05-05 13:24 | 51.80598 | -1.59106 | 5945 ft | 275 kts | 249° |
| 2026-05-05 13:24 | 51.79895 | -1.61994 | 5963 ft | 275 kts | 249° |
| 2026-05-05 13:25 | 51.79181 | -1.64855 | 6096 ft | 279 kts | 248° |
| 2026-05-05 13:25 | 51.78449 | -1.67789 | 6842 ft | 279 kts | 248° |
| 2026-05-05 13:25 | 51.77723 | -1.70707 | 7511 ft | 280 kts | 249° |
| 2026-05-05 13:25 | 51.77000 | -1.73621 | 7828 ft | 282 kts | 249° |
| 2026-05-05 13:26 | 51.76347 | -1.76620 | 7938 ft | 282 kts | 261° |
| 2026-05-05 13:26 | 51.76399 | -1.79750 | 7981 ft | 280 kts | 284° |
| 2026-05-05 13:26 | 51.77004 | -1.82732 | 7980 ft | 279 kts | 290° |
| 2026-05-05 13:26 | 51.77578 | -1.85708 | 7981 ft | 279 kts | 286° |
| 2026-05-05 13:27 | 51.78031 | -1.88769 | 7981 ft | 279 kts | 283° |
| 2026-05-05 13:27 | 51.78407 | -1.91814 | 7982 ft | 279 kts | 282° |
| 2026-05-05 13:27 | 51.78759 | -1.94918 | 7984 ft | 279 kts | 281° |
| 2026-05-05 13:27 | 51.79116 | -1.98004 | 7988 ft | 279 kts | 286° |
| 2026-05-05 13:28 | 51.79997 | -2.00765 | 8001 ft | 277 kts | 310° |
| 2026-05-05 13:28 | 51.81301 | -2.03004 | 7995 ft | 276 kts | 317° |
| 2026-05-05 13:28 | 51.82705 | -2.05126 | 7995 ft | 276 kts | 318° |
| 2026-05-05 13:28 | 51.84135 | -2.07229 | 7993 ft | 275 kts | 319° |
| 2026-05-05 13:29 | 51.85541 | -2.09284 | 7994 ft | 275 kts | 319° |
| 2026-05-05 13:29 | 51.86967 | -2.11372 | 7992 ft | 276 kts | 319° |
| 2026-05-05 13:29 | 51.88400 | -2.13471 | 7988 ft | 275 kts | 319° |
| 2026-05-05 13:29 | 51.89806 | -2.15532 | 7992 ft | 275 kts | 319° |
| 2026-05-05 13:30 | 51.91229 | -2.17621 | 7995 ft | 275 kts | 319° |
| 2026-05-05 13:30 | 51.92637 | -2.19689 | 7991 ft | 275 kts | 319° |
| 2026-05-05 13:30 | 51.94062 | -2.21784 | 7995 ft | 275 kts | 319° |
| 2026-05-05 13:30 | 51.95472 | -2.23856 | 7991 ft | 275 kts | 319° |
| 2026-05-05 13:31 | 51.96892 | -2.25940 | 7997 ft | 275 kts | 318° |
| 2026-05-05 13:31 | 51.98314 | -2.28036 | 7994 ft | 275 kts | 318° |
| 2026-05-05 13:31 | 51.99712 | -2.30104 | 7995 ft | 274 kts | 318° |
| 2026-05-05 13:31 | 52.01126 | -2.32192 | 7995 ft | 274 kts | 319° |
| 2026-05-05 13:32 | 52.02573 | -2.34168 | 8009 ft | 275 kts | 321° |
| 2026-05-05 13:32 | 52.04080 | -2.36140 | 8397 ft | 278 kts | 322° |
| 2026-05-05 13:32 | 52.05566 | -2.38073 | 9361 ft | 277 kts | 322° |
| 2026-05-05 13:32 | 52.06811 | -2.39696 | 10120 ft | 280 kts | 321° |
| 2026-05-05 13:33 | 52.08348 | -2.41710 | 10968 ft | 285 kts | 321° |
| 2026-05-05 13:33 | 52.09902 | -2.43749 | 11843 ft | 288 kts | 320° |
| 2026-05-05 13:33 | 52.11471 | -2.45815 | 12699 ft | 292 kts | 320° |
| 2026-05-05 13:33 | 52.13055 | -2.47901 | 13558 ft | 297 kts | 319° |
| 2026-05-05 13:34 | 52.14687 | -2.50053 | 14365 ft | 301 kts | 319° |
| 2026-05-05 13:34 | 52.16321 | -2.52213 | 15159 ft | 304 kts | 319° |
| 2026-05-05 13:34 | 52.17975 | -2.54403 | 15952 ft | 309 kts | 319° |
| 2026-05-05 13:34 | 52.19650 | -2.56621 | 16736 ft | 313 kts | 319° |
| 2026-05-05 13:35 | 52.21341 | -2.58861 | 17535 ft | 317 kts | 319° |
| 2026-05-05 13:35 | 52.23064 | -2.61147 | 18310 ft | 321 kts | 319° |
| 2026-05-05 13:35 | 52.24809 | -2.63467 | 19017 ft | 325 kts | 319° |
| 2026-05-05 13:35 | 52.26572 | -2.65809 | 19719 ft | 329 kts | 319° |
| 2026-05-05 13:36 | 52.28354 | -2.68180 | 20421 ft | 332 kts | 318° |
| 2026-05-05 13:36 | 52.30159 | -2.70582 | 21123 ft | 336 kts | 318° |
| 2026-05-05 13:36 | 52.31990 | -2.73023 | 21818 ft | 340 kts | 318° |
| 2026-05-05 13:36 | 52.33842 | -2.75495 | 22536 ft | 344 kts | 318° |
| 2026-05-05 13:37 | 52.35712 | -2.77995 | 23243 ft | 348 kts | 318° |
| 2026-05-05 13:37 | 52.37572 | -2.80485 | 23877 ft | 352 kts | 318° |
| 2026-05-05 13:37 | 52.39476 | -2.83037 | 24472 ft | 355 kts | 318° |
| 2026-05-05 13:37 | 52.41397 | -2.85613 | 25060 ft | 359 kts | 318° |
| 2026-05-05 13:38 | 52.43337 | -2.88217 | 25654 ft | 362 kts | 318° |
| 2026-05-05 13:38 | 52.45297 | -2.90852 | 26238 ft | 366 kts | 319° |
| 2026-05-05 13:38 | 52.47274 | -2.93513 | 26818 ft | 370 kts | 319° |
| 2026-05-05 13:38 | 52.49271 | -2.96207 | 27415 ft | 373 kts | 319° |
| 2026-05-05 13:39 | 52.51285 | -2.98925 | 27986 ft | 377 kts | 319° |
| 2026-05-05 13:39 | 52.53324 | -3.01681 | 28575 ft | 381 kts | 320° |
| 2026-05-05 13:39 | 52.55366 | -3.04442 | 29154 ft | 384 kts | 320° |
| 2026-05-05 13:39 | 52.57444 | -3.07258 | 29741 ft | 388 kts | 320° |
| 2026-05-05 13:40 | 52.59500 | -3.10044 | 30267 ft | 391 kts | 321° |
| 2026-05-05 13:40 | 52.61805 | -3.12432 | 30750 ft | 394 kts | 338° |
| 2026-05-05 13:40 | 52.64452 | -3.13641 | 31258 ft | 396 kts | 354° |
| 2026-05-05 13:40 | 52.67213 | -3.13659 | 31759 ft | 398 kts | 4° |
| 2026-05-05 13:41 | 52.69990 | -3.13255 | 32231 ft | 402 kts | 10° |
| 2026-05-05 13:41 | 52.72725 | -3.12202 | 32736 ft | 405 kts | 18° |
| 2026-05-05 13:41 | 52.75334 | -3.10514 | 33213 ft | 408 kts | 26° |
| 2026-05-05 13:41 | 52.77890 | -3.08476 | 33817 ft | 409 kts | 26° |
| 2026-05-05 13:42 | 52.80463 | -3.06470 | 34413 ft | 408 kts | 25° |
| 2026-05-05 13:42 | 52.83040 | -3.04471 | 34898 ft | 409 kts | 25° |
| 2026-05-05 13:42 | 52.85620 | -3.02466 | 35350 ft | 410 kts | 25° |
| 2026-05-05 13:42 | 52.88206 | -3.00447 | 35827 ft | 411 kts | 25° |
| 2026-05-05 13:43 | 52.90837 | -2.98557 | 36281 ft | 411 kts | 19° |
| 2026-05-05 13:43 | 52.93537 | -2.96944 | 36750 ft | 412 kts | 19° |
| 2026-05-05 13:43 | 52.96231 | -2.95306 | 37213 ft | 413 kts | 19° |
| 2026-05-05 13:43 | 52.98899 | -2.93672 | 37658 ft | 414 kts | 19° |
| 2026-05-05 13:44 | 53.01609 | -2.92008 | 37960 ft | 416 kts | 18° |
| 2026-05-05 13:44 | 53.04322 | -2.90342 | 38045 ft | 414 kts | 18° |
| 2026-05-05 13:44 | 53.09264 | -2.86436 | 38047 ft | 414 kts | 32° |
| 2026-05-05 13:45 | 53.14016 | -2.80957 | 38047 ft | 417 kts | 33° |
| 2026-05-05 13:45 | 53.18290 | -2.76061 | 38043 ft | 416 kts | 33° |
| 2026-05-05 13:46 | 53.23032 | -2.70603 | 38044 ft | 416 kts | 33° |
| 2026-05-05 13:46 | 53.27799 | -2.65097 | 38046 ft | 416 kts | 33° |
| 2026-05-05 13:47 | 53.32566 | -2.59611 | 38043 ft | 415 kts | 33° |
| 2026-05-05 13:47 | 53.37322 | -2.54120 | 38021 ft | 415 kts | 33° |
| 2026-05-05 13:48 | 53.42084 | -2.48602 | 38018 ft | 415 kts | 33° |
| 2026-05-05 13:48 | 53.46812 | -2.43108 | 38017 ft | 415 kts | 33° |
| 2026-05-05 13:49 | 53.51547 | -2.37539 | 38019 ft | 415 kts | 34° |
| 2026-05-05 13:49 | 53.56264 | -2.31940 | 38019 ft | 415 kts | 34° |
| 2026-05-05 13:50 | 53.60972 | -2.26344 | 38017 ft | 415 kts | 34° |
| 2026-05-05 13:50 | 53.65716 | -2.20695 | 38016 ft | 415 kts | 34° |
| 2026-05-05 13:51 | 53.70437 | -2.15097 | 38007 ft | 415 kts | 29° |
| 2026-05-05 13:51 | 53.73034 | -2.13091 | 38011 ft | 412 kts | 13° |
| 2026-05-05 13:51 | 53.75862 | -2.12333 | 38010 ft | 408 kts | 357° |
| 2026-05-05 13:52 | 53.78676 | -2.12901 | 38011 ft | 404 kts | 341° |
| 2026-05-05 13:52 | 53.81291 | -2.14545 | 38011 ft | 402 kts | 334° |
| 2026-05-05 13:52 | 53.86400 | -2.18370 | 38011 ft | 402 kts | 334° |
| 2026-05-05 13:53 | 53.91553 | -2.22044 | 38009 ft | 402 kts | 335° |
| 2026-05-05 13:53 | 53.96736 | -2.25619 | 38017 ft | 402 kts | 336° |
| 2026-05-05 13:54 | 54.01903 | -2.29263 | 38028 ft | 401 kts | 331° |
| 2026-05-05 13:54 | 54.06783 | -2.33823 | 38032 ft | 401 kts | 329° |
| 2026-05-05 13:55 | 54.11655 | -2.38370 | 38034 ft | 400 kts | 329° |
| 2026-05-05 13:55 | 54.16538 | -2.42945 | 38030 ft | 400 kts | 329° |
| 2026-05-05 13:56 | 54.20597 | -2.46764 | 38007 ft | 400 kts | 329° |
| 2026-05-05 13:56 | 54.25467 | -2.51361 | 38013 ft | 400 kts | 328° |
| 2026-05-05 13:57 | 54.30370 | -2.56002 | 38020 ft | 400 kts | 328° |
| 2026-05-05 13:57 | 54.35230 | -2.60614 | 38028 ft | 400 kts | 328° |
| 2026-05-05 13:58 | 54.40088 | -2.65237 | 38014 ft | 400 kts | 328° |
| 2026-05-05 13:58 | 54.44962 | -2.69890 | 38015 ft | 400 kts | 328° |
| 2026-05-05 13:59 | 54.52249 | -2.76867 | 38022 ft | 400 kts | 328° |
| 2026-05-05 14:00 | 54.59532 | -2.83870 | 38025 ft | 400 kts | 328° |
| 2026-05-05 14:00 | 54.64398 | -2.88564 | 38021 ft | 399 kts | 328° |
| 2026-05-05 14:01 | 54.69239 | -2.93249 | 38026 ft | 399 kts | 328° |
| 2026-05-05 14:01 | 54.74084 | -2.97950 | 38027 ft | 399 kts | 328° |
| 2026-05-05 14:02 | 54.78914 | -3.02650 | 38032 ft | 398 kts | 328° |
| 2026-05-05 14:02 | 54.83733 | -3.07349 | 38040 ft | 398 kts | 328° |
| 2026-05-05 14:03 | 54.88579 | -3.12084 | 38033 ft | 398 kts | 328° |
| 2026-05-05 14:03 | 54.93396 | -3.16800 | 38028 ft | 398 kts | 327° |
| 2026-05-05 14:04 | 54.98213 | -3.21529 | 38036 ft | 398 kts | 327° |
| 2026-05-05 14:04 | 55.03018 | -3.26256 | 38035 ft | 398 kts | 327° |
| 2026-05-05 14:05 | 55.07838 | -3.31012 | 38038 ft | 397 kts | 327° |
| 2026-05-05 14:05 | 55.12643 | -3.35763 | 38037 ft | 397 kts | 327° |
| 2026-05-05 14:06 | 55.17459 | -3.40537 | 38039 ft | 397 kts | 327° |
| 2026-05-05 14:06 | 55.22276 | -3.45328 | 38040 ft | 397 kts | 327° |
| 2026-05-05 14:07 | 55.27396 | -3.48841 | 38035 ft | 405 kts | 351° |
| 2026-05-05 14:07 | 55.30200 | -3.48766 | 37893 ft | 409 kts | 7° |
| 2026-05-05 14:07 | 55.32959 | -3.47365 | 37491 ft | 417 kts | 22° |
| 2026-05-05 14:08 | 55.35474 | -3.44654 | 36962 ft | 426 kts | 38° |
| 2026-05-05 14:08 | 55.37518 | -3.40866 | 36385 ft | 435 kts | 54° |
| 2026-05-05 14:08 | 55.38979 | -3.36206 | 35772 ft | 442 kts | 69° |
| 2026-05-05 14:08 | 55.39761 | -3.30919 | 35169 ft | 448 kts | 84° |
| 2026-05-05 14:09 | 55.39778 | -3.25471 | 34711 ft | 448 kts | 99° |
| 2026-05-05 14:09 | 55.39029 | -3.20164 | 34408 ft | 442 kts | 115° |
| 2026-05-05 14:09 | 55.37603 | -3.15485 | 34125 ft | 433 kts | 130° |
| 2026-05-05 14:09 | 55.35594 | -3.11658 | 33769 ft | 424 kts | 145° |
| 2026-05-05 14:10 | 55.33124 | -3.08925 | 33432 ft | 414 kts | 161° |
| 2026-05-05 14:10 | 55.30395 | -3.07494 | 33081 ft | 404 kts | 176° |
| 2026-05-05 14:10 | 55.27643 | -3.07446 | 32740 ft | 394 kts | 193° |
| 2026-05-05 14:10 | 55.25044 | -3.08746 | 32382 ft | 385 kts | 207° |
| 2026-05-05 14:11 | 55.22609 | -3.10622 | 32028 ft | 385 kts | 204° |
| 2026-05-05 14:11 | 55.20044 | -3.11881 | 31687 ft | 386 kts | 193° |
| 2026-05-05 14:11 | 55.17350 | -3.12327 | 31361 ft | 388 kts | 185° |
| 2026-05-05 14:11 | 55.14662 | -3.12205 | 31024 ft | 388 kts | 180° |
| 2026-05-05 14:12 | 55.11963 | -3.11792 | 30701 ft | 387 kts | 178° |
| 2026-05-05 14:12 | 55.09317 | -3.11278 | 30387 ft | 385 kts | 177° |
| 2026-05-05 14:12 | 55.06641 | -3.10816 | 30026 ft | 380 kts | 184° |
| 2026-05-05 14:12 | 55.04071 | -3.11435 | 29625 ft | 371 kts | 201° |
| 2026-05-05 14:13 | 55.01786 | -3.13387 | 29237 ft | 363 kts | 219° |
| 2026-05-05 14:13 | 55.00016 | -3.16470 | 28834 ft | 358 kts | 237° |
| 2026-05-05 14:13 | 54.98956 | -3.20307 | 28431 ft | 355 kts | 255° |
| 2026-05-05 14:13 | 54.98699 | -3.24583 | 28011 ft | 355 kts | 274° |
| 2026-05-05 14:14 | 54.99283 | -3.28686 | 27612 ft | 357 kts | 292° |
| 2026-05-05 14:14 | 55.00663 | -3.32320 | 27224 ft | 360 kts | 308° |
| 2026-05-05 14:14 | 55.02361 | -3.35487 | 26825 ft | 358 kts | 309° |
| 2026-05-05 14:14 | 55.03910 | -3.38848 | 26459 ft | 354 kts | 301° |
| 2026-05-05 14:15 | 55.05150 | -3.42547 | 26081 ft | 350 kts | 294° |
| 2026-05-05 14:15 | 55.06130 | -3.46398 | 25702 ft | 347 kts | 290° |
| 2026-05-05 14:15 | 55.06976 | -3.50351 | 25436 ft | 342 kts | 288° |
| 2026-05-05 14:15 | 55.07733 | -3.54182 | 25330 ft | 332 kts | 287° |
| 2026-05-05 14:16 | 55.08475 | -3.58022 | 24971 ft | 330 kts | 287° |
| 2026-05-05 14:16 | 55.09211 | -3.61844 | 24335 ft | 338 kts | 287° |
| 2026-05-05 14:16 | 55.09972 | -3.65780 | 23421 ft | 352 kts | 288° |
| 2026-05-05 14:16 | 55.10780 | -3.69943 | 22320 ft | 367 kts | 288° |
| 2026-05-05 14:17 | 55.11613 | -3.74226 | 21260 ft | 380 kts | 288° |
| 2026-05-05 14:17 | 55.12480 | -3.78681 | 20231 ft | 392 kts | 288° |
| 2026-05-05 14:17 | 55.13372 | -3.83275 | 19234 ft | 401 kts | 288° |
| 2026-05-05 14:17 | 55.14266 | -3.87891 | 18364 ft | 407 kts | 288° |
| 2026-05-05 14:18 | 55.15177 | -3.92608 | 17696 ft | 404 kts | 288° |
| 2026-05-05 14:18 | 55.16062 | -3.97197 | 17076 ft | 400 kts | 288° |
| 2026-05-05 14:18 | 55.16948 | -4.01809 | 16446 ft | 395 kts | 288° |
| 2026-05-05 14:18 | 55.17813 | -4.06321 | 15802 ft | 391 kts | 288° |
| 2026-05-05 14:19 | 55.18674 | -4.10823 | 15168 ft | 387 kts | 288° |
| 2026-05-05 14:19 | 55.19524 | -4.15287 | 14540 ft | 383 kts | 288° |
| 2026-05-05 14:19 | 55.20358 | -4.19668 | 13904 ft | 379 kts | 288° |
| 2026-05-05 14:19 | 55.21190 | -4.24048 | 13187 ft | 375 kts | 288° |
| 2026-05-05 14:20 | 55.22015 | -4.28408 | 12454 ft | 372 kts | 288° |
| 2026-05-05 14:20 | 55.22828 | -4.32712 | 11721 ft | 369 kts | 288° |
| 2026-05-05 14:20 | 55.23623 | -4.36928 | 11038 ft | 366 kts | 288° |
| 2026-05-05 14:20 | 55.24418 | -4.41156 | 10278 ft | 358 kts | 288° |
| 2026-05-05 14:21 | 55.25168 | -4.45146 | 9259 ft | 352 kts | 288° |
| 2026-05-05 14:21 | 55.25923 | -4.49183 | 8174 ft | 350 kts | 289° |
| 2026-05-05 14:21 | 55.26668 | -4.53181 | 7572 ft | 333 kts | 289° |
| 2026-05-05 14:21 | 55.27356 | -4.56882 | 7320 ft | 309 kts | 289° |
| 2026-05-05 14:22 | 55.27999 | -4.60347 | 7086 ft | 286 kts | 289° |
| 2026-05-05 14:22 | 55.28514 | -4.63125 | 6911 ft | 267 kts | 290° |
| 2026-05-05 14:22 | 55.29063 | -4.66086 | 6711 ft | 247 kts | 290° |
| 2026-05-05 14:22 | 55.29580 | -4.68883 | 6527 ft | 230 kts | 290° |
| 2026-05-05 14:23 | 55.30064 | -4.71493 | 6182 ft | 224 kts | 290° |
| 2026-05-05 14:23 | 55.30555 | -4.74130 | 6074 ft | 229 kts | 290° |
| 2026-05-05 14:23 | 55.30969 | -4.76345 | 6079 ft | 227 kts | 292° |
| 2026-05-05 14:23 | 55.31846 | -4.78584 | 6084 ft | 223 kts | 325° |
| 2026-05-05 14:24 | 55.33236 | -4.79780 | 6081 ft | 221 kts | 341° |
| 2026-05-05 14:24 | 55.34672 | -4.80691 | 6077 ft | 220 kts | 342° |
| 2026-05-05 14:24 | 55.36115 | -4.81605 | 6079 ft | 220 kts | 341° |
| 2026-05-05 14:24 | 55.37549 | -4.82536 | 5977 ft | 218 kts | 341° |
| 2026-05-05 14:25 | 55.38954 | -4.83470 | 5673 ft | 218 kts | 341° |
| 2026-05-05 14:25 | 55.40374 | -4.84426 | 5345 ft | 218 kts | 341° |
| 2026-05-05 14:25 | 55.41818 | -4.85402 | 5013 ft | 218 kts | 341° |
| 2026-05-05 14:25 | 55.43225 | -4.86354 | 4711 ft | 217 kts | 341° |
| 2026-05-05 14:26 | 55.44613 | -4.87293 | 4391 ft | 217 kts | 341° |
| 2026-05-05 14:26 | 55.46043 | -4.88260 | 4112 ft | 214 kts | 341° |
| 2026-05-05 14:26 | 55.47440 | -4.89204 | 4008 ft | 215 kts | 341° |
| 2026-05-05 14:26 | 55.48847 | -4.90155 | 4004 ft | 215 kts | 341° |
| 2026-05-05 14:27 | 55.50232 | -4.91092 | 4004 ft | 216 kts | 340° |
| 2026-05-05 14:27 | 55.51618 | -4.92030 | 4006 ft | 215 kts | 340° |
| 2026-05-05 14:27 | 55.53040 | -4.92994 | 3969 ft | 214 kts | 340° |
| 2026-05-05 14:27 | 55.54453 | -4.93598 | 3695 ft | 211 kts | 7° |
| 2026-05-05 14:28 | 55.55742 | -4.92528 | 3362 ft | 211 kts | 49° |
| 2026-05-05 14:28 | 55.56421 | -4.90237 | 3099 ft | 207 kts | 70° |
| 2026-05-05 14:28 | 55.56816 | -4.87823 | 2850 ft | 202 kts | 74° |
| 2026-05-05 14:28 | 55.57147 | -4.85510 | 2549 ft | 201 kts | 75° |
| 2026-05-05 14:29 | 55.57452 | -4.83317 | 2250 ft | 200 kts | 74° |
| 2026-05-05 14:29 | 55.57688 | -4.80930 | 2020 ft | 198 kts | 89° |
| 2026-05-05 14:29 | 55.57407 | -4.78562 | 2006 ft | 203 kts | 109° |
| 2026-05-05 14:29 | 55.56771 | -4.76311 | 1999 ft | 203 kts | 118° |
| 2026-05-05 14:30 | 55.56020 | -4.74163 | 1909 ft | 208 kts | 120° |
| 2026-05-05 14:30 | 55.55272 | -4.71984 | 1574 ft | 210 kts | 120° |
| 2026-05-05 14:30 | 55.54503 | -4.69765 | 1251 ft | 208 kts | 119° |
| 2026-05-05 14:30 | 55.54009 | -4.68338 | 1058 ft | 201 kts | 119° |
| 2026-05-05 14:31 | 55.53074 | -4.65622 | 681 ft | 188 kts | 121° |
| 2026-05-05 14:31 | 55.52627 | -4.64343 | 529 ft | 181 kts | 121° |
| 2026-05-05 14:31 | 55.51799 | -4.61944 | 226 ft | 163 kts | 121° |
| 2026-05-05 14:31 | 55.51399 | -4.60783 | 95 ft | 173 kts | 121° |
| 2026-05-05 14:32 | 55.50821 | -4.59115 | 60 ft | 122 kts | 121° |
| 2026-05-05 14:32 | 55.50510 | -4.58217 | 68 ft | 55 kts | 121° |
| 2026-05-05 14:32 | 55.50360 | -4.57922 | 70 ft | 24 kts | 185° |
| 2026-05-05 14:32 | 55.50283 | -4.57998 | 66 ft | 1 kts | 241° |
| 2026-05-05 14:33 | 55.50307 | -4.58154 | 71 ft | 33 kts | 301° |
| 2026-05-05 14:33 | 55.50434 | -4.58521 | 64 ft | 35 kts | 302° |
| 2026-05-05 14:33 | 55.50553 | -4.58892 | 59 ft | 34 kts | 293° |
| 2026-05-05 14:33 | 55.50664 | -4.59247 | 59 ft | 33 kts | 302° |
| 2026-05-05 14:34 | 55.50655 | -4.59378 | 58 ft | 20 kts | 234° |
| 2026-05-05 14:34 | 55.50598 | -4.59575 | 61 ft | 0 kts | 244° |
| 2026-05-05 14:36 | 55.50602 | -4.59561 | 65 ft | 2 kts | 244° |
| 2026-05-05 14:36 | 55.50611 | -4.59531 | 58 ft | 3 kts | 244° |
| 2026-05-05 14:36 | 55.50621 | -4.59496 | 59 ft | 3 kts | 244° |
| 2026-05-05 14:36 | 55.50631 | -4.59459 | 57 ft | 3 kts | 244° |
| 2026-05-05 14:37 | 55.50638 | -4.59426 | 58 ft | 2 kts | 233° |
| 2026-05-05 14:37 | 55.50641 | -4.59424 | 58 ft | 6 kts | 237° |
| 2026-05-05 14:37 | 55.50636 | -4.59556 | 61 ft | 16 kts | 284° |
| 2026-05-05 14:37 | 55.50683 | -4.59545 | 66 ft | 5 kts | 71° |
| 2026-05-05 14:38 | 55.50682 | -4.59529 | 59 ft | 0 kts | 89° |